sensor_id;sensor_type;location;lat;lon;timestamp;P1;durP1;ratioP1;P2;durP2;ratioP2
3659;SDS011;1846;51.482;7.224;2023-05-10T00:01:11;6.82;;;6.13;;
3659;SDS011;1846;51.482;7.224;2023-05-10T00:03:38;6.40;;;5.80;;
3659;SDS011;1846;51.482;7.224;2023-05-10T00:06:05;7.40;;;6.70;;
3659;SDS011;1846;51.482;7.224;2023-05-10T00:08:34;6.25;;;5.75;;
3659;SDS011;1846;51.482;7.224;2023-05-10T00:11:07;8.98;;;6.45;;
3659;SDS011;1846;51.482;7.224;2023-05-10T00:13:34;6.88;;;6.18;;
3659;SDS011;1846;51.482;7.224;2023-05-10T00:16:01;8.27;;;7.40;;
3659;SDS011;1846;51.482;7.224;2023-05-10T00:18:29;8.40;;;7.47;;
3659;SDS011;1846;51.482;7.224;2023-05-10T00:20:56;11.00;;;6.93;;
3659;SDS011;1846;51.482;7.224;2023-05-10T00:23:23;8.27;;;7.47;;
3659;SDS011;1846;51.482;7.224;2023-05-10T00:25:55;7.97;;;7.17;;
3659;SDS011;1846;51.482;7.224;2023-05-10T00:28:27;9.20;;;7.20;;
3659;SDS011;1846;51.482;7.224;2023-05-10T00:30:54;9.20;;;7.47;;
3659;SDS011;1846;51.482;7.224;2023-05-10T00:33:21;10.55;;;8.38;;
3659;SDS011;1846;51.482;7.224;2023-05-10T00:35:50;10.32;;;8.60;;
3659;SDS011;1846;51.482;7.224;2023-05-10T00:38:17;13.15;;;9.32;;
3659;SDS011;1846;51.482;7.224;2023-05-10T00:40:44;10.93;;;8.90;;
3659;SDS011;1846;51.482;7.224;2023-05-10T00:43:11;11.05;;;8.80;;
3659;SDS011;1846;51.482;7.224;2023-05-10T00:45:38;12.32;;;9.65;;
3659;SDS011;1846;51.482;7.224;2023-05-10T00:48:06;13.45;;;10.20;;
3659;SDS011;1846;51.482;7.224;2023-05-10T00:50:33;12.50;;;10.48;;
3659;SDS011;1846;51.482;7.224;2023-05-10T00:53:02;14.27;;;11.10;;
3659;SDS011;1846;51.482;7.224;2023-05-10T00:55:29;14.53;;;10.03;;
3659;SDS011;1846;51.482;7.224;2023-05-10T00:57:57;12.98;;;10.00;;
3659;SDS011;1846;51.482;7.224;2023-05-10T01:00:24;14.15;;;9.90;;
3659;SDS011;1846;51.482;7.224;2023-05-10T01:02:51;13.68;;;10.73;;
3659;SDS011;1846;51.482;7.224;2023-05-10T01:05:22;13.88;;;10.90;;
3659;SDS011;1846;51.482;7.224;2023-05-10T01:07:49;13.23;;;10.63;;
3659;SDS011;1846;51.482;7.224;2023-05-10T01:10:17;14.73;;;10.80;;
3659;SDS011;1846;51.482;7.224;2023-05-10T01:12:46;14.85;;;11.15;;
3659;SDS011;1846;51.482;7.224;2023-05-10T01:15:13;16.17;;;11.93;;
3659;SDS011;1846;51.482;7.224;2023-05-10T01:17:44;16.83;;;12.15;;
3659;SDS011;1846;51.482;7.224;2023-05-10T01:20:12;14.93;;;12.15;;
3659;SDS011;1846;51.482;7.224;2023-05-10T01:34:55;14.60;;;11.45;;
3659;SDS011;1846;51.482;7.224;2023-05-10T01:37:31;14.40;;;11.20;;
3659;SDS011;1846;51.482;7.224;2023-05-10T01:40:08;12.07;;;10.20;;
3659;SDS011;1846;51.482;7.224;2023-05-10T01:42:43;14.87;;;11.07;;
3659;SDS011;1846;51.482;7.224;2023-05-10T01:45:18;13.88;;;10.65;;
3659;SDS011;1846;51.482;7.224;2023-05-10T01:47:53;13.52;;;11.00;;
3659;SDS011;1846;51.482;7.224;2023-05-10T01:50:29;14.43;;;10.93;;
3659;SDS011;1846;51.482;7.224;2023-05-10T01:52:58;15.27;;;10.93;;
3659;SDS011;1846;51.482;7.224;2023-05-10T01:55:27;13.48;;;10.65;;
3659;SDS011;1846;51.482;7.224;2023-05-10T01:58:01;14.00;;;11.23;;
3659;SDS011;1846;51.482;7.224;2023-05-10T02:00:31;15.40;;;12.13;;
3659;SDS011;1846;51.482;7.224;2023-05-10T02:03:01;13.82;;;11.40;;
3659;SDS011;1846;51.482;7.224;2023-05-10T02:05:32;15.07;;;11.75;;
3659;SDS011;1846;51.482;7.224;2023-05-10T02:08:03;16.03;;;11.80;;
3659;SDS011;1846;51.482;7.224;2023-05-10T02:10:34;14.48;;;11.95;;
3659;SDS011;1846;51.482;7.224;2023-05-10T02:13:02;17.45;;;12.57;;
3659;SDS011;1846;51.482;7.224;2023-05-10T02:15:31;18.48;;;12.13;;
3659;SDS011;1846;51.482;7.224;2023-05-10T02:18:03;16.65;;;11.38;;
3659;SDS011;1846;51.482;7.224;2023-05-10T02:20:34;15.50;;;12.38;;
3659;SDS011;1846;51.482;7.224;2023-05-10T02:23:02;17.80;;;11.90;;
3659;SDS011;1846;51.482;7.224;2023-05-10T02:25:36;16.23;;;12.05;;
3659;SDS011;1846;51.482;7.224;2023-05-10T02:28:05;16.20;;;12.13;;
3659;SDS011;1846;51.482;7.224;2023-05-10T02:30:34;21.05;;;13.05;;
3659;SDS011;1846;51.482;7.224;2023-05-10T02:33:08;18.13;;;12.20;;
3659;SDS011;1846;51.482;7.224;2023-05-10T02:35:40;18.23;;;12.57;;
3659;SDS011;1846;51.482;7.224;2023-05-10T02:38:09;19.13;;;12.13;;
3659;SDS011;1846;51.482;7.224;2023-05-10T02:40:37;19.08;;;12.65;;
3659;SDS011;1846;51.482;7.224;2023-05-10T02:43:07;20.00;;;13.32;;
3659;SDS011;1846;51.482;7.224;2023-05-10T02:45:37;18.73;;;12.63;;
3659;SDS011;1846;51.482;7.224;2023-05-10T02:48:07;19.20;;;12.30;;
3659;SDS011;1846;51.482;7.224;2023-05-10T02:50:34;22.10;;;12.97;;
3659;SDS011;1846;51.482;7.224;2023-05-10T02:53:04;19.40;;;13.02;;
3659;SDS011;1846;51.482;7.224;2023-05-10T02:55:37;19.83;;;13.38;;
3659;SDS011;1846;51.482;7.224;2023-05-10T02:58:07;20.52;;;13.48;;
3659;SDS011;1846;51.482;7.224;2023-05-10T03:00:35;19.43;;;13.00;;
3659;SDS011;1846;51.482;7.224;2023-05-10T03:03:04;20.40;;;13.80;;
3659;SDS011;1846;51.482;7.224;2023-05-10T03:05:38;20.55;;;13.40;;
3659;SDS011;1846;51.482;7.224;2023-05-10T03:08:05;19.15;;;12.98;;
3659;SDS011;1846;51.482;7.224;2023-05-10T03:10:38;19.48;;;12.50;;
3659;SDS011;1846;51.482;7.224;2023-05-10T03:13:12;19.77;;;13.50;;
3659;SDS011;1846;51.482;7.224;2023-05-10T03:15:55;19.52;;;14.23;;
3659;SDS011;1846;51.482;7.224;2023-05-10T03:18:29;22.73;;;14.98;;
3659;SDS011;1846;51.482;7.224;2023-05-10T03:21:03;21.33;;;14.10;;
3659;SDS011;1846;51.482;7.224;2023-05-10T03:23:38;23.05;;;14.25;;
3659;SDS011;1846;51.482;7.224;2023-05-10T03:26:09;21.90;;;13.85;;
3659;SDS011;1846;51.482;7.224;2023-05-10T03:28:42;18.83;;;12.80;;
3659;SDS011;1846;51.482;7.224;2023-05-10T03:31:09;20.40;;;12.65;;
3659;SDS011;1846;51.482;7.224;2023-05-10T03:33:46;22.35;;;14.40;;
3659;SDS011;1846;51.482;7.224;2023-05-10T03:36:16;20.83;;;13.30;;
3659;SDS011;1846;51.482;7.224;2023-05-10T03:38:44;18.70;;;12.63;;
3659;SDS011;1846;51.482;7.224;2023-05-10T03:41:11;17.67;;;12.10;;
3659;SDS011;1846;51.482;7.224;2023-05-10T03:43:41;23.70;;;13.30;;
3659;SDS011;1846;51.482;7.224;2023-05-10T03:46:10;22.45;;;12.95;;
3659;SDS011;1846;51.482;7.224;2023-05-10T03:48:36;20.98;;;12.43;;
3659;SDS011;1846;51.482;7.224;2023-05-10T03:51:05;16.48;;;10.80;;
3659;SDS011;1846;51.482;7.224;2023-05-10T03:53:32;20.48;;;11.82;;
3659;SDS011;1846;51.482;7.224;2023-05-10T03:55:59;18.33;;;11.35;;
3659;SDS011;1846;51.482;7.224;2023-05-10T03:58:25;18.13;;;11.50;;
3659;SDS011;1846;51.482;7.224;2023-05-10T04:00:52;16.60;;;12.10;;
3659;SDS011;1846;51.482;7.224;2023-05-10T04:03:19;23.20;;;13.85;;
3659;SDS011;1846;51.482;7.224;2023-05-10T04:05:46;25.00;;;15.48;;
3659;SDS011;1846;51.482;7.224;2023-05-10T04:08:14;27.58;;;16.83;;
3659;SDS011;1846;51.482;7.224;2023-05-10T04:10:42;27.98;;;17.85;;
3659;SDS011;1846;51.482;7.224;2023-05-10T04:13:08;28.17;;;18.10;;
3659;SDS011;1846;51.482;7.224;2023-05-10T04:15:36;27.85;;;18.35;;
3659;SDS011;1846;51.482;7.224;2023-05-10T04:18:03;29.38;;;18.00;;
3659;SDS011;1846;51.482;7.224;2023-05-10T04:20:31;30.20;;;19.30;;
3659;SDS011;1846;51.482;7.224;2023-05-10T04:23:00;30.77;;;19.00;;
3659;SDS011;1846;51.482;7.224;2023-05-10T04:25:28;27.08;;;18.25;;
3659;SDS011;1846;51.482;7.224;2023-05-10T04:27:55;33.25;;;20.13;;
3659;SDS011;1846;51.482;7.224;2023-05-10T04:30:23;31.75;;;19.83;;
3659;SDS011;1846;51.482;7.224;2023-05-10T04:32:49;33.53;;;19.85;;
3659;SDS011;1846;51.482;7.224;2023-05-10T04:35:16;33.20;;;20.65;;
3659;SDS011;1846;51.482;7.224;2023-05-10T04:37:43;32.20;;;21.97;;
3659;SDS011;1846;51.482;7.224;2023-05-10T04:40:11;38.00;;;22.20;;
3659;SDS011;1846;51.482;7.224;2023-05-10T04:42:40;37.40;;;22.65;;
3659;SDS011;1846;51.482;7.224;2023-05-10T04:45:07;40.17;;;23.88;;
3659;SDS011;1846;51.482;7.224;2023-05-10T04:47:35;44.15;;;24.10;;
3659;SDS011;1846;51.482;7.224;2023-05-10T04:50:03;45.40;;;25.83;;
3659;SDS011;1846;51.482;7.224;2023-05-10T04:52:31;47.33;;;26.17;;
3659;SDS011;1846;51.482;7.224;2023-05-10T04:54:58;40.38;;;23.17;;
3659;SDS011;1846;51.482;7.224;2023-05-10T04:57:25;39.73;;;24.50;;
3659;SDS011;1846;51.482;7.224;2023-05-10T04:59:53;42.50;;;25.00;;
3659;SDS011;1846;51.482;7.224;2023-05-10T05:02:23;44.70;;;25.80;;
3659;SDS011;1846;51.482;7.224;2023-05-10T05:04:50;49.00;;;28.98;;
3659;SDS011;1846;51.482;7.224;2023-05-10T05:07:22;49.13;;;27.52;;
3659;SDS011;1846;51.482;7.224;2023-05-10T05:09:57;49.90;;;28.33;;
3659;SDS011;1846;51.482;7.224;2023-05-10T05:12:25;47.03;;;27.40;;
3659;SDS011;1846;51.482;7.224;2023-05-10T05:14:56;51.37;;;33.30;;
3659;SDS011;1846;51.482;7.224;2023-05-10T05:17:23;41.67;;;26.90;;
3659;SDS011;1846;51.482;7.224;2023-05-10T05:19:56;48.20;;;29.17;;
3659;SDS011;1846;51.482;7.224;2023-05-10T05:22:33;51.33;;;28.70;;
3659;SDS011;1846;51.482;7.224;2023-05-10T05:25:01;51.45;;;32.03;;
3659;SDS011;1846;51.482;7.224;2023-05-10T05:27:29;54.75;;;29.90;;
3659;SDS011;1846;51.482;7.224;2023-05-10T05:30:04;59.63;;;36.35;;
3659;SDS011;1846;51.482;7.224;2023-05-10T05:32:40;53.05;;;32.35;;
3659;SDS011;1846;51.482;7.224;2023-05-10T05:35:15;50.78;;;30.52;;
3659;SDS011;1846;51.482;7.224;2023-05-10T05:37:51;50.47;;;30.48;;
3659;SDS011;1846;51.482;7.224;2023-05-10T05:40:47;53.45;;;30.15;;
3659;SDS011;1846;51.482;7.224;2023-05-10T05:44:04;59.65;;;29.83;;
3659;SDS011;1846;51.482;7.224;2023-05-10T05:46:33;55.63;;;32.37;;
3659;SDS011;1846;51.482;7.224;2023-05-10T05:49:02;53.80;;;31.88;;
3659;SDS011;1846;51.482;7.224;2023-05-10T05:51:29;53.00;;;31.75;;
3659;SDS011;1846;51.482;7.224;2023-05-10T05:53:57;58.40;;;31.45;;
3659;SDS011;1846;51.482;7.224;2023-05-10T05:56:31;61.45;;;32.28;;
3659;SDS011;1846;51.482;7.224;2023-05-10T05:58:58;57.17;;;32.63;;
3659;SDS011;1846;51.482;7.224;2023-05-10T06:01:25;60.92;;;33.92;;
3659;SDS011;1846;51.482;7.224;2023-05-10T06:03:57;53.23;;;32.50;;
3659;SDS011;1846;51.482;7.224;2023-05-10T06:06:27;54.83;;;33.40;;
3659;SDS011;1846;51.482;7.224;2023-05-10T06:08:54;47.67;;;30.50;;
3659;SDS011;1846;51.482;7.224;2023-05-10T06:11:26;53.75;;;31.52;;
3659;SDS011;1846;51.482;7.224;2023-05-10T06:13:58;53.10;;;31.15;;
3659;SDS011;1846;51.482;7.224;2023-05-10T06:16:29;53.95;;;33.28;;
3659;SDS011;1846;51.482;7.224;2023-05-10T06:18:58;49.17;;;30.08;;
3659;SDS011;1846;51.482;7.224;2023-05-10T06:21:27;50.97;;;30.90;;
3659;SDS011;1846;51.482;7.224;2023-05-10T06:23:57;50.78;;;31.15;;
3659;SDS011;1846;51.482;7.224;2023-05-10T06:26:54;47.05;;;30.40;;
3659;SDS011;1846;51.482;7.224;2023-05-10T06:29:29;47.67;;;29.55;;
3659;SDS011;1846;51.482;7.224;2023-05-10T06:32:27;42.83;;;29.00;;
3659;SDS011;1846;51.482;7.224;2023-05-10T06:34:59;45.00;;;29.27;;
3659;SDS011;1846;51.482;7.224;2023-05-10T06:37:26;46.22;;;27.70;;
3659;SDS011;1846;51.482;7.224;2023-05-10T06:39:59;43.20;;;27.50;;
3659;SDS011;1846;51.482;7.224;2023-05-10T06:42:26;43.53;;;26.23;;
3659;SDS011;1846;51.482;7.224;2023-05-10T06:45:11;39.00;;;26.70;;
3659;SDS011;1846;51.482;7.224;2023-05-10T06:47:39;39.78;;;26.90;;
3659;SDS011;1846;51.482;7.224;2023-05-10T06:50:11;33.78;;;24.55;;
3659;SDS011;1846;51.482;7.224;2023-05-10T06:52:40;33.55;;;24.67;;
3659;SDS011;1846;51.482;7.224;2023-05-10T06:55:07;40.13;;;26.73;;
3659;SDS011;1846;51.482;7.224;2023-05-10T06:57:38;47.03;;;31.60;;
3659;SDS011;1846;51.482;7.224;2023-05-10T07:00:20;41.37;;;25.90;;
3659;SDS011;1846;51.482;7.224;2023-05-10T07:09:39;42.25;;;28.17;;
3659;SDS011;1846;51.482;7.224;2023-05-10T07:12:17;37.95;;;25.35;;
3659;SDS011;1846;51.482;7.224;2023-05-10T07:15:17;37.92;;;26.13;;
3659;SDS011;1846;51.482;7.224;2023-05-10T07:17:53;38.67;;;26.80;;
3659;SDS011;1846;51.482;7.224;2023-05-10T07:20:23;38.75;;;25.15;;
3659;SDS011;1846;51.482;7.224;2023-05-10T07:22:56;45.93;;;25.87;;
3659;SDS011;1846;51.482;7.224;2023-05-10T07:25:45;38.88;;;24.60;;
3659;SDS011;1846;51.482;7.224;2023-05-10T07:28:13;40.17;;;24.30;;
3659;SDS011;1846;51.482;7.224;2023-05-10T07:30:46;38.55;;;23.50;;
3659;SDS011;1846;51.482;7.224;2023-05-10T07:33:15;40.03;;;25.60;;
3659;SDS011;1846;51.482;7.224;2023-05-10T07:35:45;39.03;;;24.65;;
3659;SDS011;1846;51.482;7.224;2023-05-10T07:38:15;38.03;;;23.23;;
3659;SDS011;1846;51.482;7.224;2023-05-10T07:40:42;38.67;;;23.37;;
3659;SDS011;1846;51.482;7.224;2023-05-10T07:43:18;40.10;;;23.58;;
3659;SDS011;1846;51.482;7.224;2023-05-10T07:45:51;34.38;;;23.20;;
3659;SDS011;1846;51.482;7.224;2023-05-10T07:48:18;33.47;;;22.95;;
3659;SDS011;1846;51.482;7.224;2023-05-10T07:50:45;36.88;;;23.85;;
3659;SDS011;1846;51.482;7.224;2023-05-10T07:53:11;36.58;;;23.40;;
3659;SDS011;1846;51.482;7.224;2023-05-10T07:55:43;32.60;;;21.80;;
3659;SDS011;1846;51.482;7.224;2023-05-10T07:58:11;34.38;;;22.67;;
3659;SDS011;1846;51.482;7.224;2023-05-10T08:00:39;32.08;;;22.35;;
3659;SDS011;1846;51.482;7.224;2023-05-10T08:03:13;36.95;;;24.45;;
3659;SDS011;1846;51.482;7.224;2023-05-10T08:05:43;35.58;;;25.42;;
3659;SDS011;1846;51.482;7.224;2023-05-10T08:08:09;37.20;;;23.30;;
3659;SDS011;1846;51.482;7.224;2023-05-10T08:10:36;41.23;;;24.60;;
3659;SDS011;1846;51.482;7.224;2023-05-10T08:13:09;36.10;;;23.85;;
3659;SDS011;1846;51.482;7.224;2023-05-10T08:18:24;39.45;;;26.33;;
3659;SDS011;1846;51.482;7.224;2023-05-10T08:21:00;47.63;;;26.45;;
3659;SDS011;1846;51.482;7.224;2023-05-10T08:23:42;37.93;;;24.70;;
3659;SDS011;1846;51.482;7.224;2023-05-10T08:26:23;37.58;;;26.17;;
3659;SDS011;1846;51.482;7.224;2023-05-10T08:28:51;43.50;;;26.50;;
3659;SDS011;1846;51.482;7.224;2023-05-10T08:31:27;37.45;;;23.73;;
3659;SDS011;1846;51.482;7.224;2023-05-10T08:33:57;40.22;;;24.55;;
3659;SDS011;1846;51.482;7.224;2023-05-10T08:36:27;42.20;;;26.60;;
3659;SDS011;1846;51.482;7.224;2023-05-10T08:38:58;42.75;;;26.50;;
3659;SDS011;1846;51.482;7.224;2023-05-10T08:41:31;43.17;;;26.60;;
3659;SDS011;1846;51.482;7.224;2023-05-10T08:44:00;37.50;;;25.25;;
3659;SDS011;1846;51.482;7.224;2023-05-10T08:46:42;44.03;;;26.30;;
3659;SDS011;1846;51.482;7.224;2023-05-10T08:52:55;52.90;;;35.10;;
3659;SDS011;1846;51.482;7.224;2023-05-10T08:58:47;42.40;;;28.42;;
3659;SDS011;1846;51.482;7.224;2023-05-10T09:01:24;38.38;;;25.30;;
3659;SDS011;1846;51.482;7.224;2023-05-10T09:04:06;38.72;;;29.10;;
3659;SDS011;1846;51.482;7.224;2023-05-10T09:06:36;33.55;;;22.27;;
3659;SDS011;1846;51.482;7.224;2023-05-10T09:09:33;34.95;;;24.50;;
3659;SDS011;1846;51.482;7.224;2023-05-10T09:12:10;27.83;;;17.55;;
3659;SDS011;1846;51.482;7.224;2023-05-10T09:14:44;22.52;;;15.80;;
3659;SDS011;1846;51.482;7.224;2023-05-10T09:17:20;26.88;;;18.70;;
3659;SDS011;1846;51.482;7.224;2023-05-10T09:19:58;22.05;;;15.18;;
3659;SDS011;1846;51.482;7.224;2023-05-10T09:22:25;23.53;;;16.60;;
3659;SDS011;1846;51.482;7.224;2023-05-10T09:25:03;25.27;;;17.45;;
3659;SDS011;1846;51.482;7.224;2023-05-10T09:27:31;23.73;;;16.23;;
3659;SDS011;1846;51.482;7.224;2023-05-10T09:30:01;22.05;;;15.80;;
3659;SDS011;1846;51.482;7.224;2023-05-10T09:32:37;23.48;;;16.02;;
3659;SDS011;1846;51.482;7.224;2023-05-10T09:35:07;26.48;;;18.02;;
3659;SDS011;1846;51.482;7.224;2023-05-10T09:37:38;30.85;;;22.30;;
3659;SDS011;1846;51.482;7.224;2023-05-10T09:40:08;19.15;;;13.93;;
3659;SDS011;1846;51.482;7.224;2023-05-10T09:42:41;20.67;;;13.73;;
3659;SDS011;1846;51.482;7.224;2023-05-10T09:45:22;15.13;;;10.85;;
3659;SDS011;1846;51.482;7.224;2023-05-10T09:51:44;20.52;;;12.50;;
3659;SDS011;1846;51.482;7.224;2023-05-10T09:58:10;19.27;;;12.20;;
3659;SDS011;1846;51.482;7.224;2023-05-10T10:00:39;18.38;;;12.50;;
3659;SDS011;1846;51.482;7.224;2023-05-10T10:03:13;20.10;;;13.73;;
3659;SDS011;1846;51.482;7.224;2023-05-10T10:05:47;17.75;;;12.50;;
3659;SDS011;1846;51.482;7.224;2023-05-10T10:08:19;20.70;;;11.98;;
3659;SDS011;1846;51.482;7.224;2023-05-10T10:10:57;16.87;;;12.00;;
3659;SDS011;1846;51.482;7.224;2023-05-10T10:20:02;20.20;;;14.38;;
3659;SDS011;1846;51.482;7.224;2023-05-10T10:22:55;22.33;;;16.50;;
3659;SDS011;1846;51.482;7.224;2023-05-10T10:29:36;28.35;;;18.52;;
3659;SDS011;1846;51.482;7.224;2023-05-10T10:33:24;30.10;;;20.23;;
3659;SDS011;1846;51.482;7.224;2023-05-10T10:39:08;25.05;;;16.85;;
3659;SDS011;1846;51.482;7.224;2023-05-10T10:45:32;24.73;;;15.23;;
3659;SDS011;1846;51.482;7.224;2023-05-10T10:55:04;20.95;;;16.55;;
3659;SDS011;1846;51.482;7.224;2023-05-10T11:05:19;23.77;;;18.05;;
3659;SDS011;1846;51.482;7.224;2023-05-10T11:07:36;19.45;;;16.10;;
3659;SDS011;1846;51.482;7.224;2023-05-10T11:10:24;19.95;;;15.70;;
3659;SDS011;1846;51.482;7.224;2023-05-10T11:13:00;19.63;;;16.83;;
3659;SDS011;1846;51.482;7.224;2023-05-10T11:15:30;23.10;;;18.00;;
3659;SDS011;1846;51.482;7.224;2023-05-10T11:18:16;23.73;;;17.40;;
3659;SDS011;1846;51.482;7.224;2023-05-10T11:21:01;20.97;;;16.23;;
3659;SDS011;1846;51.482;7.224;2023-05-10T11:26:33;23.10;;;15.68;;
3659;SDS011;1846;51.482;7.224;2023-05-10T11:29:12;19.58;;;13.88;;
3659;SDS011;1846;51.482;7.224;2023-05-10T11:31:42;18.05;;;14.38;;
3659;SDS011;1846;51.482;7.224;2023-05-10T11:34:13;18.98;;;13.98;;
3659;SDS011;1846;51.482;7.224;2023-05-10T11:36:59;16.73;;;13.10;;
3659;SDS011;1846;51.482;7.224;2023-05-10T11:39:26;18.05;;;13.32;;
3659;SDS011;1846;51.482;7.224;2023-05-10T11:41:54;18.02;;;13.52;;
3659;SDS011;1846;51.482;7.224;2023-05-10T11:44:24;18.00;;;13.53;;
3659;SDS011;1846;51.482;7.224;2023-05-10T11:46:58;22.65;;;12.70;;
3659;SDS011;1846;51.482;7.224;2023-05-10T11:49:30;16.27;;;13.00;;
3659;SDS011;1846;51.482;7.224;2023-05-10T11:52:03;14.33;;;11.70;;
3659;SDS011;1846;51.482;7.224;2023-05-10T11:54:44;18.02;;;12.68;;
3659;SDS011;1846;51.482;7.224;2023-05-10T11:57:13;18.13;;;12.40;;
3659;SDS011;1846;51.482;7.224;2023-05-10T11:59:43;16.17;;;11.30;;
3659;SDS011;1846;51.482;7.224;2023-05-10T12:02:10;13.32;;;11.02;;
3659;SDS011;1846;51.482;7.224;2023-05-10T12:04:40;13.30;;;11.10;;
3659;SDS011;1846;51.482;7.224;2023-05-10T12:07:07;14.57;;;11.98;;
3659;SDS011;1846;51.482;7.224;2023-05-10T12:09:36;12.88;;;11.10;;
3659;SDS011;1846;51.482;7.224;2023-05-10T12:12:09;16.90;;;12.45;;
3659;SDS011;1846;51.482;7.224;2023-05-10T12:14:38;16.57;;;11.27;;
3659;SDS011;1846;51.482;7.224;2023-05-10T12:17:13;13.43;;;11.47;;
3659;SDS011;1846;51.482;7.224;2023-05-10T12:19:45;14.40;;;10.73;;
3659;SDS011;1846;51.482;7.224;2023-05-10T12:22:12;12.25;;;10.82;;
3659;SDS011;1846;51.482;7.224;2023-05-10T12:24:39;13.65;;;11.25;;
3659;SDS011;1846;51.482;7.224;2023-05-10T12:27:07;14.90;;;11.40;;
3659;SDS011;1846;51.482;7.224;2023-05-10T12:29:40;15.50;;;12.07;;
3659;SDS011;1846;51.482;7.224;2023-05-10T12:32:14;17.13;;;11.57;;
3659;SDS011;1846;51.482;7.224;2023-05-10T12:34:43;16.67;;;11.80;;
3659;SDS011;1846;51.482;7.224;2023-05-10T12:37:23;15.90;;;11.50;;
3659;SDS011;1846;51.482;7.224;2023-05-10T12:39:52;16.33;;;11.85;;
3659;SDS011;1846;51.482;7.224;2023-05-10T12:42:25;15.68;;;11.90;;
3659;SDS011;1846;51.482;7.224;2023-05-10T12:44:54;14.60;;;13.13;;
3659;SDS011;1846;51.482;7.224;2023-05-10T12:47:23;15.50;;;12.63;;
3659;SDS011;1846;51.482;7.224;2023-05-10T12:49:52;15.43;;;12.50;;
3659;SDS011;1846;51.482;7.224;2023-05-10T12:52:19;12.97;;;11.63;;
3659;SDS011;1846;51.482;7.224;2023-05-10T12:54:49;13.50;;;12.10;;
3659;SDS011;1846;51.482;7.224;2023-05-10T12:57:20;14.50;;;12.20;;
3659;SDS011;1846;51.482;7.224;2023-05-10T12:59:47;14.20;;;11.67;;
3659;SDS011;1846;51.482;7.224;2023-05-10T13:02:14;14.07;;;12.30;;
3659;SDS011;1846;51.482;7.224;2023-05-10T13:04:43;16.73;;;12.20;;
3659;SDS011;1846;51.482;7.224;2023-05-10T13:07:12;13.52;;;11.10;;
3659;SDS011;1846;51.482;7.224;2023-05-10T13:09:39;11.77;;;10.52;;
3659;SDS011;1846;51.482;7.224;2023-05-10T13:12:09;12.07;;;10.27;;
3659;SDS011;1846;51.482;7.224;2023-05-10T13:14:36;12.70;;;11.00;;
3659;SDS011;1846;51.482;7.224;2023-05-10T13:17:05;17.10;;;12.85;;
3659;SDS011;1846;51.482;7.224;2023-05-10T13:19:32;15.30;;;12.53;;
3659;SDS011;1846;51.482;7.224;2023-05-10T13:21:59;15.52;;;12.38;;
3659;SDS011;1846;51.482;7.224;2023-05-10T13:24:29;12.70;;;11.40;;
3659;SDS011;1846;51.482;7.224;2023-05-10T13:26:59;12.20;;;9.65;;
3659;SDS011;1846;51.482;7.224;2023-05-10T13:29:26;8.73;;;7.93;;
3659;SDS011;1846;51.482;7.224;2023-05-10T13:31:53;8.98;;;7.60;;
3659;SDS011;1846;51.482;7.224;2023-05-10T13:34:20;7.32;;;6.70;;
3659;SDS011;1846;51.482;7.224;2023-05-10T13:36:49;12.88;;;8.20;;
3659;SDS011;1846;51.482;7.224;2023-05-10T13:39:16;7.65;;;6.85;;
3659;SDS011;1846;51.482;7.224;2023-05-10T13:41:44;7.70;;;6.55;;
3659;SDS011;1846;51.482;7.224;2023-05-10T13:44:12;8.55;;;6.18;;
3659;SDS011;1846;51.482;7.224;2023-05-10T13:46:39;6.13;;;5.53;;
3659;SDS011;1846;51.482;7.224;2023-05-10T13:49:08;7.35;;;6.22;;
3659;SDS011;1846;51.482;7.224;2023-05-10T13:51:35;6.13;;;5.32;;
3659;SDS011;1846;51.482;7.224;2023-05-10T13:54:02;5.97;;;5.47;;
3659;SDS011;1846;51.482;7.224;2023-05-10T13:56:29;5.80;;;5.20;;
3659;SDS011;1846;51.482;7.224;2023-05-10T13:58:58;6.30;;;5.00;;
3659;SDS011;1846;51.482;7.224;2023-05-10T14:01:25;6.03;;;5.15;;
3659;SDS011;1846;51.482;7.224;2023-05-10T14:03:52;7.07;;;5.20;;
3659;SDS011;1846;51.482;7.224;2023-05-10T14:06:19;5.75;;;5.25;;
3659;SDS011;1846;51.482;7.224;2023-05-10T14:08:46;5.80;;;5.20;;
3659;SDS011;1846;51.482;7.224;2023-05-10T14:11:13;5.63;;;5.13;;
3659;SDS011;1846;51.482;7.224;2023-05-10T14:13:40;6.63;;;5.20;;
3659;SDS011;1846;51.482;7.224;2023-05-10T14:16:08;5.80;;;5.20;;
3659;SDS011;1846;51.482;7.224;2023-05-10T14:18:36;6.07;;;4.60;;
3659;SDS011;1846;51.482;7.224;2023-05-10T14:21:03;4.65;;;4.35;;
3659;SDS011;1846;51.482;7.224;2023-05-10T14:23:30;6.07;;;5.47;;
3659;SDS011;1846;51.482;7.224;2023-05-10T14:25:57;6.00;;;4.03;;
3659;SDS011;1846;51.482;7.224;2023-05-10T14:28:24;5.10;;;4.60;;
3659;SDS011;1846;51.482;7.224;2023-05-10T14:30:51;5.72;;;4.68;;
3659;SDS011;1846;51.482;7.224;2023-05-10T14:33:19;6.57;;;5.70;;
3659;SDS011;1846;51.482;7.224;2023-05-10T14:35:46;5.10;;;4.60;;
3659;SDS011;1846;51.482;7.224;2023-05-10T14:38:13;7.28;;;5.07;;
3659;SDS011;1846;51.482;7.224;2023-05-10T14:40:40;9.02;;;5.65;;
3659;SDS011;1846;51.482;7.224;2023-05-10T14:43:07;5.43;;;4.93;;
3659;SDS011;1846;51.482;7.224;2023-05-10T14:45:34;5.90;;;5.32;;
3659;SDS011;1846;51.482;7.224;2023-05-10T14:48:01;5.90;;;5.40;;
3659;SDS011;1846;51.482;7.224;2023-05-10T14:50:31;4.78;;;4.38;;
3659;SDS011;1846;51.482;7.224;2023-05-10T14:53:00;7.30;;;4.60;;
3659;SDS011;1846;51.482;7.224;2023-05-10T14:55:26;5.38;;;4.88;;
3659;SDS011;1846;51.482;7.224;2023-05-10T14:57:54;4.68;;;4.20;;
3659;SDS011;1846;51.482;7.224;2023-05-10T15:00:21;6.68;;;5.10;;
3659;SDS011;1846;51.482;7.224;2023-05-10T15:02:48;6.65;;;5.03;;
3659;SDS011;1846;51.482;7.224;2023-05-10T15:05:15;5.50;;;4.97;;
3659;SDS011;1846;51.482;7.224;2023-05-10T15:07:44;5.22;;;4.53;;
3659;SDS011;1846;51.482;7.224;2023-05-10T15:10:10;5.32;;;4.15;;
3659;SDS011;1846;51.482;7.224;2023-05-10T15:12:38;7.53;;;6.20;;
3659;SDS011;1846;51.482;7.224;2023-05-10T15:15:06;6.25;;;5.00;;
3659;SDS011;1846;51.482;7.224;2023-05-10T15:17:33;4.30;;;3.97;;
3659;SDS011;1846;51.482;7.224;2023-05-10T15:20:00;6.07;;;4.60;;
3659;SDS011;1846;51.482;7.224;2023-05-10T15:22:28;4.68;;;4.18;;
3659;SDS011;1846;51.482;7.224;2023-05-10T15:24:58;6.55;;;4.88;;
3659;SDS011;1846;51.482;7.224;2023-05-10T15:27:24;4.90;;;4.50;;
3659;SDS011;1846;51.482;7.224;2023-05-10T15:29:51;5.03;;;4.53;;
3659;SDS011;1846;51.482;7.224;2023-05-10T15:32:20;8.75;;;5.70;;
3659;SDS011;1846;51.482;7.224;2023-05-10T15:34:47;5.30;;;4.70;;
3659;SDS011;1846;51.482;7.224;2023-05-10T15:37:14;6.47;;;4.93;;
3659;SDS011;1846;51.482;7.224;2023-05-10T15:39:41;5.50;;;4.97;;
3659;SDS011;1846;51.482;7.224;2023-05-10T15:42:09;5.82;;;4.45;;
3659;SDS011;1846;51.482;7.224;2023-05-10T15:44:36;6.28;;;4.80;;
3659;SDS011;1846;51.482;7.224;2023-05-10T15:47:05;6.97;;;6.35;;
3659;SDS011;1846;51.482;7.224;2023-05-10T15:49:32;6.20;;;5.70;;
3659;SDS011;1846;51.482;7.224;2023-05-10T15:52:01;6.07;;;5.47;;
3659;SDS011;1846;51.482;7.224;2023-05-10T15:54:29;7.20;;;6.50;;
3659;SDS011;1846;51.482;7.224;2023-05-10T15:56:56;6.50;;;5.90;;
3659;SDS011;1846;51.482;7.224;2023-05-10T15:59:25;10.77;;;6.30;;
3659;SDS011;1846;51.482;7.224;2023-05-10T16:01:52;6.93;;;6.22;;
3659;SDS011;1846;51.482;7.224;2023-05-10T16:04:19;7.15;;;6.43;;
3659;SDS011;1846;51.482;7.224;2023-05-10T16:06:46;9.17;;;6.30;;
3659;SDS011;1846;51.482;7.224;2023-05-10T16:09:13;9.35;;;6.88;;
3659;SDS011;1846;51.482;7.224;2023-05-10T16:11:41;7.32;;;6.63;;
3659;SDS011;1846;51.482;7.224;2023-05-10T16:14:08;7.25;;;6.55;;
3659;SDS011;1846;51.482;7.224;2023-05-10T16:16:36;7.43;;;6.72;;
3659;SDS011;1846;51.482;7.224;2023-05-10T16:19:04;7.85;;;7.10;;
3659;SDS011;1846;51.482;7.224;2023-05-10T16:21:31;7.68;;;6.97;;
3659;SDS011;1846;51.482;7.224;2023-05-10T16:23:58;9.35;;;8.45;;
3659;SDS011;1846;51.482;7.224;2023-05-10T16:26:26;8.27;;;7.47;;
3659;SDS011;1846;51.482;7.224;2023-05-10T16:28:52;8.50;;;7.70;;